This is the latest recevied weather packets stored in our database for station/object SP8C-10. If no packets are shown the sender has not sent any weather packets the latest 10 day(s).
| Time | Temp. | Humidity | Pressure | Rain* | Wind** | Luminosity | Snow |
|---|---|---|---|---|---|---|---|
| 1788603443 | 27.22° C | 39% | 1015.6 hPa | - | - | - | - |
| 1788601643 | 26.67° C | 41% | 1015.3 hPa | - | - | - | - |
| 1788599843 | 26.11° C | 42% | 1015.4 hPa | - | - | - | - |
| 1788598043 | 25.56° C | 42% | 1015.4 hPa | - | - | - | - |
| 1788596243 | 25.56° C | 44% | 1015.2 hPa | - | - | - | - |
| 1788594442 | 25° C | 45% | 1015 hPa | - | - | - | - |
| 1788592642 | 24.44° C | 46% | 1014.4 hPa | - | - | - | - |
| 1788590842 | 24.44° C | 45% | 1014.3 hPa | - | - | - | - |
| 1788589042 | 24.44° C | 44% | 1014 hPa | - | - | - | - |
| 1788553039 | 28.89° C | 37% | 1009.1 hPa | - | - | - | - |
| 1788551239 | 28.89° C | 36% | 1009.6 hPa | - | - | - | - |
| 1788549439 | 28.89° C | 36% | 1010 hPa | - | - | - | - |
| 1788545838 | 29.44° C | 35% | 1010.4 hPa | - | - | - | - |
| 1788542238 | 30° C | 35% | 1010.4 hPa | - | - | - | - |
| 1788540438 | 30° C | 35% | 1010.6 hPa | - | - | - | - |
| 1788531449 | 30.56° C | 36% | 1012.7 hPa | - | - | - | - |
| 1788529649 | 30.56° C | 36% | 1012.9 hPa | - | - | - | - |
| 1788527849 | 30° C | 37% | 1013.3 hPa | - | - | - | - |
| 1788520648 | 28.89° C | 39% | 1015 hPa | - | - | - | - |
| 1788513447 | 27.22° C | 41% | 1015.7 hPa | - | - | - | - |
| 1788509847 | 26.11° C | 42% | 1015.8 hPa | - | - | - | - |
| 1788508047 | 25.56° C | 42% | 1016.1 hPa | - | - | - | - |
| 1788506246 | 25° C | 42% | 1016.1 hPa | - | - | - | - |
| 1788504446 | 25° C | 42% | 1015.9 hPa | - | - | - | - |
| 1788502646 | 24.44° C | 42% | 1015.9 hPa | - | - | - | - |
* Rain since midnight (hover to see other rain measurements)
** Current wind speed in m/s (hover to see current wind gust speed)